Aqualoyalty — A8ZC6 — position and weather

sailwx.info

Track history (hours):
 
Tides and Currents Weather Stations Pressure Air Temp Water Temp Dewpoint Dewpoint Depression Visibility Wind Speed Wind Dir Waves Ship Positions

Aqualoyalty

Last reported at 2017-Dec-09 02:05 UTC. Time now 2017-Dec-13 13:01 UTC.
Position N 34°37' E 140°24'.

Length 249 m; draft 13.3 m.

Type: Ship. MMSI: 636015177.

Date/timePositionNaut miles runAvg speedWind from/ knotsBaromVisibWave heightAir tempDewpointWater temp
2017-Dec-09 02:05N 34°37' E 140°24'9 0.9
2017-Dec-08 15:52N 34°40' E 140°13'7 3.5
2017-Dec-08 13:59N 34°41' E 140°06'2 3.4
2017-Dec-08 13:25N 34°42' E 140°03'4 5.1
2017-Dec-08 12:32N 34°41' E 139°58'411.0
2017-Dec-08 12:11N 34°43' E 139°53'313.8
2017-Dec-08 11:57N 34°44' E 139°50'714.2
2017-Dec-08 11:30N 34°48' E 139°43'612.7
2017-Dec-08 11:00N 34°53' E 139°40'612.1
2017-Dec-08 10:30N 34°59' E 139°41'4 8.5
2017-Dec-08 10:00N 35°03' E 139°44'0 0.4
2017-Dec-08 09:30N 35°03' E 139°44'5 9.4
2017-Dec-08 09:00N 34°59' E 139°41'4 8.3
2017-Dec-08 08:29N 34°55' E 139°43'511.1
2017-Dec-08 08:00N 34°50' E 139°47'1111.7
2017-Dec-08 07:04N 34°51' E 140°01'211.6
2017-Dec-08 06:53N 34°51' E 140°03'511.0
2017-Dec-08 06:28N 34°51' E 140°09'510.6
2017-Dec-08 05:59N 34°52' E 140°15'4 0.6
2017-Dec-07 23:49N 34°48' E 140°15'4 3.6
2017-Dec-07 22:43N 34°46' E 140°11'1 3.7
2017-Dec-07 22:30N 34°46' E 140°10'2 3.4
2017-Dec-07 22:00N 34°45' E 140°08'3 3.2
2017-Dec-07 20:55N 34°43' E 140°05'2 0.9
2017-Dec-07 19:05N 34°42' E 140°05'10 9.1
2017-Dec-07 17:58N 34°43' E 140°17'  
2017-Dec-03 12:10N 34°58' E 140°31'0 2.6
2017-Dec-03 12:00N 34°58' E 140°31'1 1.0
2017-Dec-03 11:28N 34°58' E 140°30'1 1.5
2017-Dec-03 10:52N 34°57' E 140°29'8 2.3
2017-Dec-03 07:31N 34°52' E 140°22'0 2.5
2017-Dec-03 07:29N 34°52' E 140°22'2 2.8
2017-Dec-03 06:56N 34°51' E 140°21'3 2.9
2017-Dec-03 05:49N 34°49' E 140°18'1 2.4
2017-Dec-03 05:29N 34°49' E 140°17'1 2.6
2017-Dec-03 05:00N 34°48' E 140°15'4 2.4
2017-Dec-03 03:08N 34°45' E 140°11'1 2.3
2017-Dec-03 02:52N 34°45' E 140°11'1 2.3
2017-Dec-03 02:15N 34°43' E 140°10'2 1.5
2017-Dec-03 00:43N 34°41' E 140°10'510.3
2017-Dec-03 00:16N 34°41' E 140°16'310.4
2017-Dec-03 00:00N 34°41' E 140°19'  
Track history (hours):
 
Tides and Currents Weather Stations Pressure Air Temp Water Temp Dewpoint Dewpoint Depression Visibility Wind Speed Wind Dir Waves Ship Positions

Aqualoyalty

Last reported at 2017-Dec-09 02:05 UTC. Time now 2017-Dec-13 13:01 UTC.
Position N 34°37' E 140°24'.

Length 249 m; draft 13.3 m.

Type: Ship. MMSI: 636015177.

Date/timePositionNaut miles runAvg speedWind from/ knotsBaromVisibWave heightAir tempDewpointWater temp
2017-Dec-09 02:05N 34°37' E 140°24'9 0.9
2017-Dec-08 15:52N 34°40' E 140°13'7 3.5
2017-Dec-08 13:59N 34°41' E 140°06'2 3.4
2017-Dec-08 13:25N 34°42' E 140°03'4 5.1
2017-Dec-08 12:32N 34°41' E 139°58'411.0
2017-Dec-08 12:11N 34°43' E 139°53'313.8
2017-Dec-08 11:57N 34°44' E 139°50'714.2
2017-Dec-08 11:30N 34°48' E 139°43'612.7
2017-Dec-08 11:00N 34°53' E 139°40'612.1
2017-Dec-08 10:30N 34°59' E 139°41'4 8.5
2017-Dec-08 10:00N 35°03' E 139°44'0 0.4
2017-Dec-08 09:30N 35°03' E 139°44'5 9.4
2017-Dec-08 09:00N 34°59' E 139°41'4 8.3
2017-Dec-08 08:29N 34°55' E 139°43'511.1
2017-Dec-08 08:00N 34°50' E 139°47'1111.7
2017-Dec-08 07:04N 34°51' E 140°01'211.6
2017-Dec-08 06:53N 34°51' E 140°03'511.0
2017-Dec-08 06:28N 34°51' E 140°09'510.6
2017-Dec-08 05:59N 34°52' E 140°15'4 0.6
2017-Dec-07 23:49N 34°48' E 140°15'4 3.6
2017-Dec-07 22:43N 34°46' E 140°11'1 3.7
2017-Dec-07 22:30N 34°46' E 140°10'2 3.4
2017-Dec-07 22:00N 34°45' E 140°08'3 3.2
2017-Dec-07 20:55N 34°43' E 140°05'2 0.9
2017-Dec-07 19:05N 34°42' E 140°05'10 9.1
2017-Dec-07 17:58N 34°43' E 140°17'  
2017-Dec-03 12:10N 34°58' E 140°31'0 2.6
2017-Dec-03 12:00N 34°58' E 140°31'1 1.0
2017-Dec-03 11:28N 34°58' E 140°30'1 1.5
2017-Dec-03 10:52N 34°57' E 140°29'8 2.3
2017-Dec-03 07:31N 34°52' E 140°22'0 2.5
2017-Dec-03 07:29N 34°52' E 140°22'2 2.8
2017-Dec-03 06:56N 34°51' E 140°21'3 2.9
2017-Dec-03 05:49N 34°49' E 140°18'1 2.4
2017-Dec-03 05:29N 34°49' E 140°17'1 2.6
2017-Dec-03 05:00N 34°48' E 140°15'4 2.4
2017-Dec-03 03:08N 34°45' E 140°11'1 2.3
2017-Dec-03 02:52N 34°45' E 140°11'1 2.3
2017-Dec-03 02:15N 34°43' E 140°10'2 1.5
2017-Dec-03 00:43N 34°41' E 140°10'510.3
2017-Dec-03 00:16N 34°41' E 140°16'310.4
2017-Dec-03 00:00N 34°41' E 140°19'  

Dump ship's entire track history